sensor_id;sensor_type;location;lat;lon;timestamp;P1;durP1;ratioP1;P2;durP2;ratioP2
10166;SDS011;62970;53.130;8.244;2023-05-07T06:36:46;8.27;;;7.40;;
10166;SDS011;62970;53.130;8.244;2023-05-07T06:39:15;10.03;;;9.03;;
10166;SDS011;62970;53.130;8.244;2023-05-07T06:41:44;11.33;;;10.27;;
10166;SDS011;62970;53.130;8.244;2023-05-07T06:44:14;11.17;;;9.90;;
10166;SDS011;62970;53.130;8.244;2023-05-07T06:46:43;11.27;;;10.17;;
10166;SDS011;62970;53.130;8.244;2023-05-07T06:49:13;10.63;;;9.57;;
10166;SDS011;62970;53.130;8.244;2023-05-07T06:51:43;10.60;;;9.60;;
10166;SDS011;62970;53.130;8.244;2023-05-07T06:54:15;10.57;;;9.43;;
10166;SDS011;62970;53.130;8.244;2023-05-07T06:56:45;9.50;;;8.60;;
10166;SDS011;62970;53.130;8.244;2023-05-07T06:59:17;10.83;;;9.83;;
10166;SDS011;62970;53.130;8.244;2023-05-07T07:01:47;9.87;;;8.97;;
10166;SDS011;62970;53.130;8.244;2023-05-07T07:04:16;9.30;;;8.40;;
10166;SDS011;62970;53.130;8.244;2023-05-07T07:06:50;9.50;;;8.70;;
10166;SDS011;62970;53.130;8.244;2023-05-07T07:09:22;9.70;;;8.80;;
10166;SDS011;62970;53.130;8.244;2023-05-07T07:11:51;10.10;;;9.13;;
10166;SDS011;62970;53.130;8.244;2023-05-07T07:14:20;8.50;;;7.70;;
10166;SDS011;62970;53.130;8.244;2023-05-07T07:16:49;9.30;;;8.40;;
10166;SDS011;62970;53.130;8.244;2023-05-07T07:19:19;8.93;;;8.13;;
10166;SDS011;62970;53.130;8.244;2023-05-07T07:21:51;9.17;;;8.33;;
10166;SDS011;62970;53.130;8.244;2023-05-07T07:24:21;8.57;;;7.87;;
10166;SDS011;62970;53.130;8.244;2023-05-07T07:26:50;9.57;;;8.60;;
10166;SDS011;62970;53.130;8.244;2023-05-07T07:29:20;8.57;;;7.77;;
10166;SDS011;62970;53.130;8.244;2023-05-07T07:31:51;8.73;;;7.93;;
10166;SDS011;62970;53.130;8.244;2023-05-07T07:34:20;8.80;;;8.00;;
10166;SDS011;62970;53.130;8.244;2023-05-07T07:36:52;8.17;;;7.47;;
10166;SDS011;62970;53.130;8.244;2023-05-07T07:39:22;8.57;;;7.77;;
10166;SDS011;62970;53.130;8.244;2023-05-07T07:41:51;8.37;;;7.67;;
10166;SDS011;62970;53.130;8.244;2023-05-07T07:44:20;7.70;;;7.00;;
10166;SDS011;62970;53.130;8.244;2023-05-07T07:46:50;9.03;;;8.23;;
10166;SDS011;62970;53.130;8.244;2023-05-07T07:49:19;8.20;;;7.50;;
10166;SDS011;62970;53.130;8.244;2023-05-07T07:51:52;7.87;;;7.17;;
10166;SDS011;62970;53.130;8.244;2023-05-07T07:54:21;10.93;;;7.23;;
10166;SDS011;62970;53.130;8.244;2023-05-07T07:56:51;8.23;;;7.53;;
10166;SDS011;62970;53.130;8.244;2023-05-07T07:59:21;7.80;;;7.20;;
10166;SDS011;62970;53.130;8.244;2023-05-07T08:01:50;8.23;;;7.50;;
10166;SDS011;62970;53.130;8.244;2023-05-07T08:04:21;8.37;;;7.67;;
10166;SDS011;62970;53.130;8.244;2023-05-07T08:06:53;7.83;;;7.13;;
10166;SDS011;62970;53.130;8.244;2023-05-07T08:09:23;8.13;;;7.43;;
10166;SDS011;62970;53.130;8.244;2023-05-07T08:11:52;8.20;;;7.50;;
10166;SDS011;62970;53.130;8.244;2023-05-07T08:14:22;8.67;;;7.87;;
10166;SDS011;62970;53.130;8.244;2023-05-07T08:16:51;8.63;;;7.83;;
10166;SDS011;62970;53.130;8.244;2023-05-07T08:19:20;8.37;;;7.67;;
10166;SDS011;62970;53.130;8.244;2023-05-07T08:21:53;9.07;;;8.27;;
10166;SDS011;62970;53.130;8.244;2023-05-07T08:24:22;8.93;;;8.13;;
10166;SDS011;62970;53.130;8.244;2023-05-07T08:26:52;9.10;;;8.30;;
10166;SDS011;62970;53.130;8.244;2023-05-07T08:29:21;8.80;;;8.00;;
10166;SDS011;62970;53.130;8.244;2023-05-07T08:31:50;9.33;;;8.57;;
10166;SDS011;62970;53.130;8.244;2023-05-07T08:34:20;9.20;;;8.40;;
10166;SDS011;62970;53.130;8.244;2023-05-07T08:36:53;9.17;;;8.37;;
10166;SDS011;62970;53.130;8.244;2023-05-07T08:39:22;9.80;;;8.90;;
10166;SDS011;62970;53.130;8.244;2023-05-07T08:41:52;9.40;;;8.60;;
10166;SDS011;62970;53.130;8.244;2023-05-07T08:44:25;9.13;;;8.33;;
10166;SDS011;62970;53.130;8.244;2023-05-07T08:46:56;9.43;;;8.63;;
10166;SDS011;62970;53.130;8.244;2023-05-07T08:49:26;9.07;;;8.30;;
10166;SDS011;62970;53.130;8.244;2023-05-07T08:51:58;9.60;;;8.70;;
10166;SDS011;62970;53.130;8.244;2023-05-07T08:54:28;9.80;;;8.97;;
10166;SDS011;62970;53.130;8.244;2023-05-07T08:56:59;8.80;;;8.10;;
10166;SDS011;62970;53.130;8.244;2023-05-07T08:59:29;9.10;;;8.30;;
10166;SDS011;62970;53.130;8.244;2023-05-07T09:02:00;8.67;;;7.97;;
10166;SDS011;62970;53.130;8.244;2023-05-07T09:04:29;9.03;;;8.13;;
10166;SDS011;62970;53.130;8.244;2023-05-07T09:07:04;8.30;;;7.53;;
10166;SDS011;62970;53.130;8.244;2023-05-07T09:09:33;8.67;;;7.90;;
10166;SDS011;62970;53.130;8.244;2023-05-07T09:12:03;9.93;;;8.93;;
10166;SDS011;62970;53.130;8.244;2023-05-07T09:14:32;8.43;;;7.63;;
10166;SDS011;62970;53.130;8.244;2023-05-07T09:17:02;8.87;;;8.07;;
10166;SDS011;62970;53.130;8.244;2023-05-07T09:19:31;8.07;;;7.37;;
10166;SDS011;62970;53.130;8.244;2023-05-07T09:22:04;8.80;;;8.00;;
10166;SDS011;62970;53.130;8.244;2023-05-07T09:24:35;7.97;;;7.33;;
10166;SDS011;62970;53.130;8.244;2023-05-07T09:27:06;7.97;;;7.33;;
10166;SDS011;62970;53.130;8.244;2023-05-07T09:29:38;8.27;;;7.60;;
10166;SDS011;62970;53.130;8.244;2023-05-07T09:32:07;8.03;;;7.33;;
10166;SDS011;62970;53.130;8.244;2023-05-07T09:34:37;8.37;;;7.67;;
10166;SDS011;62970;53.130;8.244;2023-05-07T09:37:10;7.77;;;7.17;;
10166;SDS011;62970;53.130;8.244;2023-05-07T09:39:43;7.50;;;6.90;;
10166;SDS011;62970;53.130;8.244;2023-05-07T09:42:15;7.00;;;6.40;;
10166;SDS011;62970;53.130;8.244;2023-05-07T09:44:45;6.97;;;6.47;;
10166;SDS011;62970;53.130;8.244;2023-05-07T09:47:16;7.73;;;7.13;;
10166;SDS011;62970;53.130;8.244;2023-05-07T09:49:48;7.00;;;6.50;;
10166;SDS011;62970;53.130;8.244;2023-05-07T09:52:20;7.20;;;6.50;;
10166;SDS011;62970;53.130;8.244;2023-05-07T09:54:50;7.37;;;6.77;;
10166;SDS011;62970;53.130;8.244;2023-05-07T09:57:21;8.03;;;6.10;;
10166;SDS011;62970;53.130;8.244;2023-05-07T09:59:51;7.10;;;6.50;;
10166;SDS011;62970;53.130;8.244;2023-05-07T10:02:21;7.23;;;6.63;;
10166;SDS011;62970;53.130;8.244;2023-05-07T10:04:54;6.47;;;5.97;;
10166;SDS011;62970;53.130;8.244;2023-05-07T10:07:28;6.40;;;5.90;;
10166;SDS011;62970;53.130;8.244;2023-05-07T10:09:58;6.73;;;6.13;;
10166;SDS011;62970;53.130;8.244;2023-05-07T10:12:28;6.17;;;5.67;;
10166;SDS011;62970;53.130;8.244;2023-05-07T10:15:02;6.93;;;6.33;;
10166;SDS011;62970;53.130;8.244;2023-05-07T10:17:35;6.03;;;5.53;;
10166;SDS011;62970;53.130;8.244;2023-05-07T10:20:06;7.03;;;6.43;;
10166;SDS011;62970;53.130;8.244;2023-05-07T10:22:41;6.33;;;5.83;;
10166;SDS011;62970;53.130;8.244;2023-05-07T10:25:14;6.80;;;6.20;;
10166;SDS011;62970;53.130;8.244;2023-05-07T10:27:46;6.10;;;5.60;;
10166;SDS011;62970;53.130;8.244;2023-05-07T10:30:21;6.50;;;6.00;;
10166;SDS011;62970;53.130;8.244;2023-05-07T10:33:04;6.17;;;5.70;;
10166;SDS011;62970;53.130;8.244;2023-05-07T10:35:37;6.60;;;6.10;;
10166;SDS011;62970;53.130;8.244;2023-05-07T10:38:14;6.60;;;6.10;;
10166;SDS011;62970;53.130;8.244;2023-05-07T10:40:44;6.63;;;6.03;;
10166;SDS011;62970;53.130;8.244;2023-05-07T10:43:14;6.47;;;5.97;;
10166;SDS011;62970;53.130;8.244;2023-05-07T10:45:53;6.10;;;5.60;;
10166;SDS011;62970;53.130;8.244;2023-05-07T10:51:37;6.53;;;6.03;;
10166;SDS011;62970;53.130;8.244;2023-05-07T10:54:21;6.23;;;5.63;;
10166;SDS011;62970;53.130;8.244;2023-05-07T10:56:54;6.47;;;5.97;;
10166;SDS011;62970;53.130;8.244;2023-05-07T10:59:31;6.63;;;6.03;;
10166;SDS011;62970;53.130;8.244;2023-05-07T11:02:07;6.73;;;6.13;;
10166;SDS011;62970;53.130;8.244;2023-05-07T11:04:39;6.60;;;6.10;;
10166;SDS011;62970;53.130;8.244;2023-05-07T11:10:02;6.50;;;5.90;;
10166;SDS011;62970;53.130;8.244;2023-05-07T11:12:48;6.77;;;6.27;;
10166;SDS011;62970;53.130;8.244;2023-05-07T11:15:35;6.53;;;6.03;;
10166;SDS011;62970;53.130;8.244;2023-05-07T11:18:08;6.53;;;6.03;;
10166;SDS011;62970;53.130;8.244;2023-05-07T11:20:44;6.77;;;6.23;;
10166;SDS011;62970;53.130;8.244;2023-05-07T11:29:23;6.17;;;5.67;;
10166;SDS011;62970;53.130;8.244;2023-05-07T11:31:55;6.33;;;5.83;;
10166;SDS011;62970;53.130;8.244;2023-05-07T11:34:27;6.17;;;5.67;;
10166;SDS011;62970;53.130;8.244;2023-05-07T11:36:56;6.27;;;5.77;;
10166;SDS011;62970;53.130;8.244;2023-05-07T11:39:28;6.33;;;5.83;;
10166;SDS011;62970;53.130;8.244;2023-05-07T11:42:03;6.70;;;6.20;;
10166;SDS011;62970;53.130;8.244;2023-05-07T11:44:40;6.77;;;6.27;;
10166;SDS011;62970;53.130;8.244;2023-05-07T11:47:16;6.80;;;6.20;;
10166;SDS011;62970;53.130;8.244;2023-05-07T11:49:47;6.50;;;6.00;;
10166;SDS011;62970;53.130;8.244;2023-05-07T11:52:19;6.53;;;6.03;;
10166;SDS011;62970;53.130;8.244;2023-05-07T11:54:50;6.53;;;6.03;;
10166;SDS011;62970;53.130;8.244;2023-05-07T11:57:25;6.30;;;5.80;;
10166;SDS011;62970;53.130;8.244;2023-05-07T11:59:56;6.83;;;6.27;;
10166;SDS011;62970;53.130;8.244;2023-05-07T12:02:27;6.43;;;5.93;;
10166;SDS011;62970;53.130;8.244;2023-05-07T12:04:56;7.03;;;6.43;;
10166;SDS011;62970;53.130;8.244;2023-05-07T12:07:28;7.30;;;6.67;;
10166;SDS011;62970;53.130;8.244;2023-05-07T12:09:57;7.03;;;6.43;;
10166;SDS011;62970;53.130;8.244;2023-05-07T12:12:29;7.13;;;6.43;;
10166;SDS011;62970;53.130;8.244;2023-05-07T12:14:58;7.57;;;6.90;;
10166;SDS011;62970;53.130;8.244;2023-05-07T12:17:30;6.83;;;6.23;;
10166;SDS011;62970;53.130;8.244;2023-05-07T12:20:00;7.13;;;6.43;;
10166;SDS011;62970;53.130;8.244;2023-05-07T12:22:30;7.47;;;6.67;;
10166;SDS011;62970;53.130;8.244;2023-05-07T12:24:59;7.17;;;6.63;;
10166;SDS011;62970;53.130;8.244;2023-05-07T12:27:31;7.00;;;6.50;;
10166;SDS011;62970;53.130;8.244;2023-05-07T12:30:05;6.87;;;6.27;;
10166;SDS011;62970;53.130;8.244;2023-05-07T12:32:37;7.07;;;6.43;;
10166;SDS011;62970;53.130;8.244;2023-05-07T12:35:07;6.90;;;6.30;;
10166;SDS011;62970;53.130;8.244;2023-05-07T12:37:38;6.77;;;6.27;;
10166;SDS011;62970;53.130;8.244;2023-05-07T12:40:08;6.57;;;6.07;;
10166;SDS011;62970;53.130;8.244;2023-05-07T12:42:42;6.43;;;5.93;;
10166;SDS011;62970;53.130;8.244;2023-05-07T12:45:12;6.40;;;5.90;;
10166;SDS011;62970;53.130;8.244;2023-05-07T12:47:44;6.97;;;6.37;;
10166;SDS011;62970;53.130;8.244;2023-05-07T12:50:15;7.03;;;6.53;;
10166;SDS011;62970;53.130;8.244;2023-05-07T12:52:46;6.83;;;6.13;;
10166;SDS011;62970;53.130;8.244;2023-05-07T12:55:16;6.60;;;6.10;;
10166;SDS011;62970;53.130;8.244;2023-05-07T12:57:51;6.40;;;5.90;;
10166;SDS011;62970;53.130;8.244;2023-05-07T13:00:35;6.33;;;5.83;;
10166;SDS011;62970;53.130;8.244;2023-05-07T13:03:08;6.07;;;5.40;;
10166;SDS011;62970;53.130;8.244;2023-05-07T13:05:39;5.80;;;5.30;;
10166;SDS011;62970;53.130;8.244;2023-05-07T13:08:08;5.63;;;5.23;;
10166;SDS011;62970;53.130;8.244;2023-05-07T13:10:38;5.90;;;5.40;;
10166;SDS011;62970;53.130;8.244;2023-05-07T13:13:10;5.67;;;5.17;;
10166;SDS011;62970;53.130;8.244;2023-05-07T13:15:39;5.97;;;5.37;;
10166;SDS011;62970;53.130;8.244;2023-05-07T13:18:09;5.33;;;4.83;;
10166;SDS011;62970;53.130;8.244;2023-05-07T13:20:39;5.70;;;5.20;;
10166;SDS011;62970;53.130;8.244;2023-05-07T13:23:08;5.80;;;5.20;;
10166;SDS011;62970;53.130;8.244;2023-05-07T13:25:38;5.33;;;4.93;;
10166;SDS011;62970;53.130;8.244;2023-05-07T13:28:11;6.07;;;5.57;;
10166;SDS011;62970;53.130;8.244;2023-05-07T13:30:40;5.73;;;5.23;;
10166;SDS011;62970;53.130;8.244;2023-05-07T13:33:12;6.03;;;5.47;;
10166;SDS011;62970;53.130;8.244;2023-05-07T13:35:41;5.40;;;5.00;;
10166;SDS011;62970;53.130;8.244;2023-05-07T13:38:10;5.87;;;5.37;;
10166;SDS011;62970;53.130;8.244;2023-05-07T13:40:41;6.10;;;5.60;;
10166;SDS011;62970;53.130;8.244;2023-05-07T13:43:12;5.60;;;5.10;;
10166;SDS011;62970;53.130;8.244;2023-05-07T13:45:42;5.73;;;5.13;;
10166;SDS011;62970;53.130;8.244;2023-05-07T13:48:12;5.47;;;4.97;;
10166;SDS011;62970;53.130;8.244;2023-05-07T13:50:42;5.70;;;5.20;;
10166;SDS011;62970;53.130;8.244;2023-05-07T13:53:11;5.50;;;5.10;;
10166;SDS011;62970;53.130;8.244;2023-05-07T13:55:43;6.20;;;5.60;;
10166;SDS011;62970;53.130;8.244;2023-05-07T13:58:15;6.40;;;5.90;;
10166;SDS011;62970;53.130;8.244;2023-05-07T14:00:44;5.83;;;5.33;;
10166;SDS011;62970;53.130;8.244;2023-05-07T14:03:13;5.10;;;4.70;;
10166;SDS011;62970;53.130;8.244;2023-05-07T14:05:44;5.57;;;5.17;;
10166;SDS011;62970;53.130;8.244;2023-05-07T14:08:14;5.97;;;5.47;;
10166;SDS011;62970;53.130;8.244;2023-05-07T14:10:44;5.43;;;4.93;;
10166;SDS011;62970;53.130;8.244;2023-05-07T14:13:16;5.90;;;5.30;;
10166;SDS011;62970;53.130;8.244;2023-05-07T14:15:46;5.27;;;4.87;;
10166;SDS011;62970;53.130;8.244;2023-05-07T14:18:15;5.30;;;4.53;;
10166;SDS011;62970;53.130;8.244;2023-05-07T14:20:44;5.27;;;4.87;;
10166;SDS011;62970;53.130;8.244;2023-05-07T14:23:18;4.83;;;4.33;;
10166;SDS011;62970;53.130;8.244;2023-05-07T14:25:51;5.17;;;4.77;;
10166;SDS011;62970;53.130;8.244;2023-05-07T14:28:24;4.73;;;4.40;;
10166;SDS011;62970;53.130;8.244;2023-05-07T14:30:54;4.90;;;4.57;;
10166;SDS011;62970;53.130;8.244;2023-05-07T14:33:23;5.93;;;5.20;;
10166;SDS011;62970;53.130;8.244;2023-05-07T14:35:52;5.40;;;4.90;;
10166;SDS011;62970;53.130;8.244;2023-05-07T14:38:22;4.70;;;4.30;;
10166;SDS011;62970;53.130;8.244;2023-05-07T14:40:51;5.23;;;4.83;;
10166;SDS011;62970;53.130;8.244;2023-05-07T14:43:21;5.30;;;4.90;;
10166;SDS011;62970;53.130;8.244;2023-05-07T14:45:53;5.07;;;4.67;;
10166;SDS011;62970;53.130;8.244;2023-05-07T14:48:22;5.43;;;4.73;;
10166;SDS011;62970;53.130;8.244;2023-05-07T14:50:51;4.60;;;4.30;;
10166;SDS011;62970;53.130;8.244;2023-05-07T14:53:22;4.60;;;4.20;;
10166;SDS011;62970;53.130;8.244;2023-05-07T14:55:51;4.20;;;3.80;;
10166;SDS011;62970;53.130;8.244;2023-05-07T14:58:21;4.73;;;4.33;;
10166;SDS011;62970;53.130;8.244;2023-05-07T15:00:53;4.30;;;4.00;;
10166;SDS011;62970;53.130;8.244;2023-05-07T15:03:22;4.23;;;3.93;;
10166;SDS011;62970;53.130;8.244;2023-05-07T15:05:55;4.07;;;3.77;;
10166;SDS011;62970;53.130;8.244;2023-05-07T15:08:24;4.00;;;3.70;;
10166;SDS011;62970;53.130;8.244;2023-05-07T15:10:53;4.33;;;3.97;;
10166;SDS011;62970;53.130;8.244;2023-05-07T15:13:30;4.00;;;3.70;;
10166;SDS011;62970;53.130;8.244;2023-05-07T15:16:00;4.60;;;4.20;;
10166;SDS011;62970;53.130;8.244;2023-05-07T15:18:29;4.63;;;4.23;;
10166;SDS011;62970;53.130;8.244;2023-05-07T15:20:58;4.40;;;4.07;;
10166;SDS011;62970;53.130;8.244;2023-05-07T15:23:27;4.40;;;4.10;;
10166;SDS011;62970;53.130;8.244;2023-05-07T15:25:57;4.43;;;4.10;;
10166;SDS011;62970;53.130;8.244;2023-05-07T15:28:26;4.50;;;4.20;;
10166;SDS011;62970;53.130;8.244;2023-05-07T15:31:00;4.80;;;4.40;;
10166;SDS011;62970;53.130;8.244;2023-05-07T15:33:30;5.17;;;4.67;;
10166;SDS011;62970;53.130;8.244;2023-05-07T15:35:59;5.10;;;4.70;;
10166;SDS011;62970;53.130;8.244;2023-05-07T15:38:29;4.87;;;4.47;;
10166;SDS011;62970;53.130;8.244;2023-05-07T15:40:58;5.13;;;4.47;;
10166;SDS011;62970;53.130;8.244;2023-05-07T15:43:27;5.20;;;4.80;;
10166;SDS011;62970;53.130;8.244;2023-05-07T15:45:59;6.27;;;4.80;;
10166;SDS011;62970;53.130;8.244;2023-05-07T15:48:29;5.30;;;4.90;;
10166;SDS011;62970;53.130;8.244;2023-05-07T15:50:58;5.30;;;4.90;;
10166;SDS011;62970;53.130;8.244;2023-05-07T15:53:27;4.87;;;4.47;;
10166;SDS011;62970;53.130;8.244;2023-05-07T15:55:57;5.00;;;4.60;;
10166;SDS011;62970;53.130;8.244;2023-05-07T15:58:30;5.70;;;5.30;;
10166;SDS011;62970;53.130;8.244;2023-05-07T16:01:00;5.33;;;4.93;;
10166;SDS011;62970;53.130;8.244;2023-05-07T16:03:29;6.50;;;4.97;;
10166;SDS011;62970;53.130;8.244;2023-05-07T16:05:59;5.40;;;4.90;;
10166;SDS011;62970;53.130;8.244;2023-05-07T16:08:28;5.87;;;5.37;;
10166;SDS011;62970;53.130;8.244;2023-05-07T16:10:58;5.80;;;5.30;;
10166;SDS011;62970;53.130;8.244;2023-05-07T16:13:27;5.00;;;4.63;;
10166;SDS011;62970;53.130;8.244;2023-05-07T16:16:02;5.90;;;5.30;;
10166;SDS011;62970;53.130;8.244;2023-05-07T16:18:33;5.67;;;5.27;;
10166;SDS011;62970;53.130;8.244;2023-05-07T16:21:02;5.43;;;5.03;;
10166;SDS011;62970;53.130;8.244;2023-05-07T16:23:32;5.93;;;5.43;;
10166;SDS011;62970;53.130;8.244;2023-05-07T16:26:02;5.70;;;5.30;;
10166;SDS011;62970;53.130;8.244;2023-05-07T16:28:34;5.50;;;5.10;;
10166;SDS011;62970;53.130;8.244;2023-05-07T16:31:04;5.23;;;4.83;;
10166;SDS011;62970;53.130;8.244;2023-05-07T16:33:35;5.50;;;5.00;;
10166;SDS011;62970;53.130;8.244;2023-05-07T16:36:06;5.10;;;4.70;;
10166;SDS011;62970;53.130;8.244;2023-05-07T16:38:37;5.20;;;4.80;;
10166;SDS011;62970;53.130;8.244;2023-05-07T16:41:07;5.50;;;5.10;;
10166;SDS011;62970;53.130;8.244;2023-05-07T16:43:40;5.20;;;4.70;;
10166;SDS011;62970;53.130;8.244;2023-05-07T16:46:09;5.63;;;5.13;;
10166;SDS011;62970;53.130;8.244;2023-05-07T16:48:39;5.70;;;5.20;;
10166;SDS011;62970;53.130;8.244;2023-05-07T16:51:09;5.50;;;5.10;;
10166;SDS011;62970;53.130;8.244;2023-05-07T16:53:38;5.87;;;5.37;;
10166;SDS011;62970;53.130;8.244;2023-05-07T16:56:08;7.27;;;6.20;;
10166;SDS011;62970;53.130;8.244;2023-05-07T16:58:40;5.60;;;5.20;;
10166;SDS011;62970;53.130;8.244;2023-05-07T17:01:10;6.47;;;5.40;;
10166;SDS011;62970;53.130;8.244;2023-05-07T17:03:41;5.70;;;5.20;;
10166;SDS011;62970;53.130;8.244;2023-05-07T17:06:12;5.97;;;5.37;;
10166;SDS011;62970;53.130;8.244;2023-05-07T17:08:42;5.80;;;5.30;;
10166;SDS011;62970;53.130;8.244;2023-05-07T17:11:11;5.83;;;5.40;;
10166;SDS011;62970;53.130;8.244;2023-05-07T17:13:44;6.17;;;5.10;;
10166;SDS011;62970;53.130;8.244;2023-05-07T17:16:13;5.40;;;4.90;;
10166;SDS011;62970;53.130;8.244;2023-05-07T17:18:43;5.53;;;5.03;;
10166;SDS011;62970;53.130;8.244;2023-05-07T17:21:12;5.30;;;4.80;;
10166;SDS011;62970;53.130;8.244;2023-05-07T17:23:41;5.00;;;4.60;;
10166;SDS011;62970;53.130;8.244;2023-05-07T17:26:11;5.67;;;5.17;;
10166;SDS011;62970;53.130;8.244;2023-05-07T17:28:45;5.33;;;4.93;;
10166;SDS011;62970;53.130;8.244;2023-05-07T17:31:14;4.97;;;4.57;;
10166;SDS011;62970;53.130;8.244;2023-05-07T17:33:44;5.80;;;5.20;;
10166;SDS011;62970;53.130;8.244;2023-05-07T17:36:14;5.37;;;4.97;;
10166;SDS011;62970;53.130;8.244;2023-05-07T17:38:43;4.97;;;4.57;;
10166;SDS011;62970;53.130;8.244;2023-05-07T17:41:12;5.43;;;4.97;;
10166;SDS011;62970;53.130;8.244;2023-05-07T17:43:41;5.10;;;4.70;;
10166;SDS011;62970;53.130;8.244;2023-05-07T17:46:13;5.50;;;5.00;;
10166;SDS011;62970;53.130;8.244;2023-05-07T17:48:43;5.43;;;4.93;;
10166;SDS011;62970;53.130;8.244;2023-05-07T17:51:12;6.60;;;4.83;;
10166;SDS011;62970;53.130;8.244;2023-05-07T17:53:42;5.33;;;4.87;;
10166;SDS011;62970;53.130;8.244;2023-05-07T17:56:11;4.80;;;4.40;;
10166;SDS011;62970;53.130;8.244;2023-05-07T17:58:40;6.73;;;4.37;;
10166;SDS011;62970;53.130;8.244;2023-05-07T18:01:12;4.87;;;4.47;;
10166;SDS011;62970;53.130;8.244;2023-05-07T18:03:42;4.77;;;4.33;;
10166;SDS011;62970;53.130;8.244;2023-05-07T18:06:11;6.03;;;5.07;;
10166;SDS011;62970;53.130;8.244;2023-05-07T18:08:43;5.00;;;4.27;;
10166;SDS011;62970;53.130;8.244;2023-05-07T18:11:13;4.73;;;4.33;;
10166;SDS011;62970;53.130;8.244;2023-05-07T18:13:42;4.70;;;4.40;;
10166;SDS011;62970;53.130;8.244;2023-05-07T18:16:14;5.10;;;4.70;;
10166;SDS011;62970;53.130;8.244;2023-05-07T18:18:44;4.70;;;4.30;;
10166;SDS011;62970;53.130;8.244;2023-05-07T18:21:14;4.83;;;4.43;;
10166;SDS011;62970;53.130;8.244;2023-05-07T18:23:43;5.00;;;4.60;;
10166;SDS011;62970;53.130;8.244;2023-05-07T18:26:13;4.70;;;4.30;;
10166;SDS011;62970;53.130;8.244;2023-05-07T18:28:57;4.60;;;4.20;;
10166;SDS011;62970;53.130;8.244;2023-05-07T18:31:32;4.87;;;4.47;;
10166;SDS011;62970;53.130;8.244;2023-05-07T18:34:01;4.30;;;4.00;;
10166;SDS011;62970;53.130;8.244;2023-05-07T18:36:31;4.30;;;4.00;;
10166;SDS011;62970;53.130;8.244;2023-05-07T18:39:00;4.77;;;4.37;;
10166;SDS011;62970;53.130;8.244;2023-05-07T18:41:30;4.77;;;4.30;;
10166;SDS011;62970;53.130;8.244;2023-05-07T18:43:59;4.50;;;4.20;;
10166;SDS011;62970;53.130;8.244;2023-05-07T18:46:32;4.53;;;4.23;;
10166;SDS011;62970;53.130;8.244;2023-05-07T18:49:04;4.77;;;4.37;;
10166;SDS011;62970;53.130;8.244;2023-05-07T18:51:34;4.67;;;4.27;;
10166;SDS011;62970;53.130;8.244;2023-05-07T18:54:03;5.03;;;4.37;;
10166;SDS011;62970;53.130;8.244;2023-05-07T18:56:33;4.70;;;4.30;;
10166;SDS011;62970;53.130;8.244;2023-05-07T18:59:02;4.97;;;4.57;;
10166;SDS011;62970;53.130;8.244;2023-05-07T19:01:34;4.77;;;4.17;;
10166;SDS011;62970;53.130;8.244;2023-05-07T19:04:03;4.80;;;4.40;;
10166;SDS011;62970;53.130;8.244;2023-05-07T19:06:32;4.77;;;4.43;;
10166;SDS011;62970;53.130;8.244;2023-05-07T19:09:01;4.97;;;4.50;;
10166;SDS011;62970;53.130;8.244;2023-05-07T19:11:32;5.20;;;4.70;;
10166;SDS011;62970;53.130;8.244;2023-05-07T19:14:01;4.97;;;4.57;;
10166;SDS011;62970;53.130;8.244;2023-05-07T19:16:31;4.60;;;4.20;;
10166;SDS011;62970;53.130;8.244;2023-05-07T19:19:02;4.87;;;4.37;;
10166;SDS011;62970;53.130;8.244;2023-05-07T19:21:32;4.93;;;4.60;;
10166;SDS011;62970;53.130;8.244;2023-05-07T19:24:01;4.50;;;4.20;;
10166;SDS011;62970;53.130;8.244;2023-05-07T19:26:31;4.70;;;4.40;;
10166;SDS011;62970;53.130;8.244;2023-05-07T19:29:00;4.80;;;4.40;;
10166;SDS011;62970;53.130;8.244;2023-05-07T19:31:30;4.13;;;3.67;;
10166;SDS011;62970;53.130;8.244;2023-05-07T19:34:02;4.40;;;4.00;;
10166;SDS011;62970;53.130;8.244;2023-05-07T19:36:32;4.73;;;4.33;;
10166;SDS011;62970;53.130;8.244;2023-05-07T19:39:02;5.23;;;4.30;;
10166;SDS011;62970;53.130;8.244;2023-05-07T19:41:31;5.03;;;4.63;;
10166;SDS011;62970;53.130;8.244;2023-05-07T19:44:00;4.70;;;4.30;;
10166;SDS011;62970;53.130;8.244;2023-05-07T19:46:30;4.57;;;4.17;;
10166;SDS011;62970;53.130;8.244;2023-05-07T19:49:02;4.73;;;4.33;;
10166;SDS011;62970;53.130;8.244;2023-05-07T19:51:31;4.83;;;4.40;;
10166;SDS011;62970;53.130;8.244;2023-05-07T19:54:01;4.37;;;4.03;;
10166;SDS011;62970;53.130;8.244;2023-05-07T19:56:30;4.63;;;4.23;;
10166;SDS011;62970;53.130;8.244;2023-05-07T19:59:00;4.90;;;4.40;;
10166;SDS011;62970;53.130;8.244;2023-05-07T20:01:30;5.07;;;4.67;;
10166;SDS011;62970;53.130;8.244;2023-05-07T20:04:03;4.73;;;4.17;;
10166;SDS011;62970;53.130;8.244;2023-05-07T20:06:32;4.93;;;4.50;;
10166;SDS011;62970;53.130;8.244;2023-05-07T20:09:02;5.17;;;4.67;;
10166;SDS011;62970;53.130;8.244;2023-05-07T20:11:34;5.50;;;5.00;;
10166;SDS011;62970;53.130;8.244;2023-05-07T20:14:03;5.40;;;5.00;;
10166;SDS011;62970;53.130;8.244;2023-05-07T20:16:34;5.30;;;4.90;;
10166;SDS011;62970;53.130;8.244;2023-05-07T20:19:06;4.87;;;4.47;;
10166;SDS011;62970;53.130;8.244;2023-05-07T20:21:35;5.27;;;4.87;;
10166;SDS011;62970;53.130;8.244;2023-05-07T20:24:04;5.20;;;4.70;;
10166;SDS011;62970;53.130;8.244;2023-05-07T20:26:35;5.70;;;5.13;;
10166;SDS011;62970;53.130;8.244;2023-05-07T20:29:06;5.27;;;4.87;;
10166;SDS011;62970;53.130;8.244;2023-05-07T20:31:36;4.97;;;4.57;;
10166;SDS011;62970;53.130;8.244;2023-05-07T20:34:09;5.10;;;4.70;;
10166;SDS011;62970;53.130;8.244;2023-05-07T20:36:38;5.47;;;5.00;;
10166;SDS011;62970;53.130;8.244;2023-05-07T20:39:07;5.00;;;4.60;;
10166;SDS011;62970;53.130;8.244;2023-05-07T20:41:40;5.30;;;4.90;;
10166;SDS011;62970;53.130;8.244;2023-05-07T20:44:09;4.90;;;4.60;;
10166;SDS011;62970;53.130;8.244;2023-05-07T20:46:39;5.10;;;4.70;;
10166;SDS011;62970;53.130;8.244;2023-05-07T20:49:11;4.50;;;4.20;;
10166;SDS011;62970;53.130;8.244;2023-05-07T20:51:40;4.83;;;4.30;;
10166;SDS011;62970;53.130;8.244;2023-05-07T20:54:10;4.93;;;4.53;;
10166;SDS011;62970;53.130;8.244;2023-05-07T20:56:39;4.60;;;4.20;;
10166;SDS011;62970;53.130;8.244;2023-05-07T20:59:10;5.13;;;4.73;;
10166;SDS011;62970;53.130;8.244;2023-05-07T21:01:39;4.73;;;4.33;;
10166;SDS011;62970;53.130;8.244;2023-05-07T21:04:11;4.77;;;4.47;;
10166;SDS011;62970;53.130;8.244;2023-05-07T21:06:40;4.20;;;3.90;;
10166;SDS011;62970;53.130;8.244;2023-05-07T21:09:10;4.20;;;3.90;;
10166;SDS011;62970;53.130;8.244;2023-05-07T21:11:39;4.93;;;4.53;;
10166;SDS011;62970;53.130;8.244;2023-05-07T21:14:08;5.20;;;4.80;;
10166;SDS011;62970;53.130;8.244;2023-05-07T21:16:37;4.77;;;4.47;;
10166;SDS011;62970;53.130;8.244;2023-05-07T21:19:07;5.13;;;4.63;;
10166;SDS011;62970;53.130;8.244;2023-05-07T21:21:40;11.77;;;4.60;;
10166;SDS011;62970;53.130;8.244;2023-05-07T21:24:09;4.50;;;4.10;;
10166;SDS011;62970;53.130;8.244;2023-05-07T21:26:39;4.97;;;4.57;;
10166;SDS011;62970;53.130;8.244;2023-05-07T21:29:08;4.87;;;4.40;;
10166;SDS011;62970;53.130;8.244;2023-05-07T21:31:37;4.90;;;4.50;;
10166;SDS011;62970;53.130;8.244;2023-05-07T21:34:06;5.40;;;4.50;;
10166;SDS011;62970;53.130;8.244;2023-05-07T21:36:39;4.97;;;4.50;;
10166;SDS011;62970;53.130;8.244;2023-05-07T21:39:08;4.90;;;4.50;;
10166;SDS011;62970;53.130;8.244;2023-05-07T21:41:38;4.90;;;4.50;;
10166;SDS011;62970;53.130;8.244;2023-05-07T21:44:07;4.80;;;4.40;;
10166;SDS011;62970;53.130;8.244;2023-05-07T21:46:37;4.13;;;3.83;;
10166;SDS011;62970;53.130;8.244;2023-05-07T21:49:07;4.83;;;4.33;;
10166;SDS011;62970;53.130;8.244;2023-05-07T21:51:38;4.50;;;4.13;;
10166;SDS011;62970;53.130;8.244;2023-05-07T21:54:08;4.80;;;4.37;;
10166;SDS011;62970;53.130;8.244;2023-05-07T21:56:37;4.90;;;4.50;;